Terminal Aerodrome Forecast
Issued by NWS

Home | Current Version | Previous Version | Text Only | Print | Product List | Glossary On
Versions: 1 2 3 4 5 6 7 8 9 10 11 12
000
FTUS46 KHNX 241700
TAFFAT
TAF
KFAT 241729Z 2418/2518 30007KT P6SM FEW200
     FM250200 31012KT P6SM SCT150 BKN200
     FM250800 32008KT P6SM BKN120
     FM251400 32010KT P6SM SCT050 OVC090 PROB30 2516/2518 6SM -RA
      BKN050=

USA.gov is the U.S. government's official web portal to all federal, state and local government web resources and services.